createdAt,value
2018-11-26T00:01:33.979Z,45.37
2018-11-26T00:04:04.434Z,44.77
2018-11-26T00:06:33.510Z,42.77
2018-11-26T00:09:02.959Z,44.83
2018-11-26T00:11:35.590Z,42.73
2018-11-26T00:14:04.999Z,42.13
2018-11-26T00:16:34.096Z,44.23
2018-11-26T00:19:03.434Z,43.80
2018-11-26T00:21:32.791Z,42.77
2018-11-26T00:24:02.079Z,46.07
2018-11-26T00:26:31.602Z,43.20
2018-11-26T00:29:00.791Z,46.20
2018-11-26T00:31:29.990Z,44.20
2018-11-26T00:34:00.318Z,44.33
2018-11-26T00:36:29.606Z,45.63
2018-11-26T00:38:58.718Z,44.40
2018-11-26T00:41:27.874Z,46.37
2018-11-26T00:43:57.011Z,49.00
2018-11-26T00:46:26.102Z,48.50
2018-11-26T00:48:55.462Z,47.50
2018-11-26T00:51:24.684Z,48.33
2018-11-26T00:53:53.987Z,47.73
2018-11-26T00:56:23.331Z,46.77
2018-11-26T00:58:52.589Z,47.47
2018-11-26T01:01:21.803Z,46.87
2018-11-26T01:03:51.134Z,46.97
2018-11-26T01:06:20.980Z,47.10
2018-11-26T01:08:49.605Z,48.17
2018-11-26T01:11:18.730Z,47.07
2018-11-26T01:13:47.773Z,47.10
2018-11-26T01:16:16.967Z,49.60
2018-11-26T01:18:46.293Z,48.23
2018-11-26T01:21:15.670Z,48.43
2018-11-26T01:23:44.969Z,48.27
2018-11-26T01:26:14.452Z,46.10
2018-11-26T01:28:43.586Z,46.03
2018-11-26T01:31:12.788Z,46.20
2018-11-26T01:33:42.028Z,46.50
2018-11-26T01:36:11.166Z,46.30
2018-11-26T01:38:40.470Z,47.20
2018-11-26T01:41:09.906Z,48.90
2018-11-26T01:43:39.070Z,46.40
2018-11-26T01:46:08.279Z,46.47
2018-11-26T01:48:37.467Z,46.07
2018-11-26T01:51:07.579Z,48.20
2018-11-26T01:53:36.990Z,48.17
2018-11-26T01:56:06.576Z,46.13
2018-11-26T01:58:35.787Z,47.13
2018-11-26T02:01:04.995Z,48.53
2018-11-26T02:03:34.370Z,47.50
2018-11-26T02:06:03.684Z,48.57
2018-11-26T02:08:32.990Z,46.17
2018-11-26T02:11:02.326Z,49.00
2018-11-26T02:13:31.497Z,49.03
2018-11-26T02:16:00.663Z,46.73
2018-11-26T02:18:29.876Z,49.27
2018-11-26T02:20:58.886Z,49.20
2018-11-26T02:23:28.085Z,50.93
2018-11-26T02:25:57.414Z,45.90
2018-11-26T02:28:27.085Z,47.63
2018-11-26T02:30:56.383Z,46.97
2018-11-26T02:33:25.918Z,46.90
2018-11-26T02:35:55.082Z,46.60
2018-11-26T02:38:24.198Z,49.00
2018-11-26T02:40:53.635Z,46.37
2018-11-26T02:43:22.781Z,48.77
2018-11-26T02:45:51.971Z,45.47
2018-11-26T02:48:21.235Z,47.77
2018-11-26T02:50:50.587Z,47.60
2018-11-26T02:53:19.682Z,48.33
2018-11-26T02:55:50.106Z,44.53
2018-11-26T02:58:19.294Z,45.77
2018-11-26T03:00:48.540Z,45.90
2018-11-26T03:03:17.805Z,45.80
2018-11-26T03:05:46.803Z,46.37
2018-11-26T03:08:15.942Z,46.30
2018-11-26T03:10:45.075Z,47.27
2018-11-26T03:13:14.167Z,50.43
2018-11-26T03:15:43.331Z,47.20
2018-11-26T03:18:12.466Z,45.23
2018-11-26T03:20:41.590Z,48.40
2018-11-26T03:23:11.024Z,45.07
2018-11-26T03:25:40.363Z,48.93
2018-11-26T03:28:09.573Z,46.67
2018-11-26T03:30:38.991Z,48.00
2018-11-26T03:33:08.175Z,50.77
2018-11-26T03:35:37.380Z,49.50
2018-11-26T03:38:06.782Z,48.03
2018-11-26T03:40:36.367Z,49.60
2018-11-26T03:43:05.719Z,49.20
2018-11-26T03:45:35.126Z,54.20
2018-11-26T03:48:04.402Z,51.83
2018-11-26T03:50:33.586Z,53.17
2018-11-26T03:53:03.198Z,52.83
2018-11-26T03:55:32.378Z,49.80
2018-11-26T03:58:01.575Z,50.80
2018-11-26T04:00:30.965Z,48.60
2018-11-26T04:03:00.140Z,47.50
2018-11-26T04:05:29.251Z,50.13
2018-11-26T04:07:58.478Z,48.13
2018-11-26T04:10:27.581Z,48.53
2018-11-26T04:12:56.874Z,46.27
2018-11-26T04:15:26.003Z,45.23
2018-11-26T04:17:55.261Z,46.63
2018-11-26T04:20:24.566Z,45.63
2018-11-26T04:22:54.827Z,51.13
2018-11-26T04:25:24.091Z,52.03
2018-11-26T04:27:53.387Z,50.20
2018-11-26T04:30:22.900Z,51.80
2018-11-26T04:32:52.202Z,51.63
2018-11-26T04:35:21.522Z,52.30
2018-11-26T04:37:50.663Z,51.23
2018-11-26T04:40:19.942Z,50.10
2018-11-26T04:42:50.090Z,50.93
2018-11-26T04:45:19.526Z,50.10
2018-11-26T04:47:48.651Z,50.70
2018-11-26T04:50:17.751Z,49.53
2018-11-26T04:52:47.220Z,46.93
2018-11-26T04:55:16.799Z,47.20
2018-11-26T04:57:45.995Z,44.80
2018-11-26T05:00:17.372Z,50.80
2018-11-26T05:02:46.594Z,50.67
2018-11-26T05:05:15.899Z,52.17
2018-11-26T05:07:45.518Z,49.13
2018-11-26T05:10:15.230Z,46.87
2018-11-26T05:12:44.409Z,47.43
2018-11-26T05:15:14.039Z,45.37
2018-11-26T05:17:43.129Z,47.43
2018-11-26T05:20:13.332Z,45.87
2018-11-26T05:22:42.747Z,51.57
2018-11-26T05:25:12.482Z,57.00
2018-11-26T05:27:41.625Z,52.47
2018-11-26T05:30:13.181Z,58.23
2018-11-26T05:32:42.518Z,49.07
2018-11-26T05:35:12.253Z,47.97
2018-11-26T05:37:41.640Z,48.73
2018-11-26T05:40:13.709Z,48.07
2018-11-26T05:42:43.559Z,47.13
2018-11-26T05:45:14.043Z,46.53
2018-11-26T05:47:43.280Z,48.60
2018-11-26T05:50:14.506Z,47.53
2018-11-26T05:52:43.664Z,46.90
2018-11-26T05:55:14.083Z,48.07
2018-11-26T05:57:43.492Z,46.37
2018-11-26T06:00:14.223Z,48.57
2018-11-26T06:02:43.442Z,48.37
2018-11-26T06:05:12.627Z,49.53
2018-11-26T06:07:41.799Z,52.27
2018-11-26T06:10:11.230Z,53.77
2018-11-26T06:12:40.298Z,51.37
2018-11-26T06:15:12.164Z,52.43
2018-11-26T06:17:41.646Z,54.40
2018-11-26T06:20:12.293Z,53.07
2018-11-26T06:22:42.551Z,49.00
2018-11-26T06:25:14.630Z,55.63
2018-11-26T06:27:43.946Z,47.33
2018-11-26T06:30:15.095Z,53.67
2018-11-26T06:32:44.563Z,51.03
2018-11-26T06:35:22.669Z,59.57
2018-11-26T06:37:51.769Z,60.53
2018-11-26T06:40:20.957Z,83.90
2018-11-26T06:42:50.393Z,78.13
2018-11-26T06:45:21.609Z,58.13
2018-11-26T06:47:50.932Z,71.53
2018-11-26T06:50:21.115Z,74.57
2018-11-26T06:52:51.069Z,62.47
2018-11-26T06:55:22.677Z,56.30
2018-11-26T06:57:52.449Z,54.80
2018-11-26T07:00:21.913Z,49.53
2018-11-26T07:02:51.419Z,49.23
2018-11-26T07:05:22.721Z,60.77
2018-11-26T07:07:52.262Z,55.97
2018-11-26T07:10:21.890Z,82.97
2018-11-26T07:12:51.061Z,65.03
2018-11-26T07:15:21.488Z,50.87
2018-11-26T07:17:50.949Z,88.30
2018-11-26T07:20:20.990Z,69.87
2018-11-26T07:22:50.279Z,62.23
2018-11-26T07:25:21.175Z,55.30
2018-11-26T07:27:54.354Z,62.07
2018-11-26T07:30:29.771Z,54.83
2018-11-26T07:33:01.536Z,69.10
2018-11-26T07:35:31.354Z,68.30
2018-11-26T07:38:00.554Z,66.10
2018-11-26T07:40:29.854Z,69.57
2018-11-26T07:43:18.214Z,74.87
2018-11-26T07:45:47.316Z,58.30
2018-11-26T07:48:16.388Z,61.50
2018-11-26T07:50:45.742Z,53.70
2018-11-26T07:53:14.883Z,54.07
2018-11-26T07:55:44.082Z,55.47
2018-11-26T07:58:13.814Z,53.83
2018-11-26T08:00:43.010Z,56.50
2018-11-26T08:03:12.207Z,54.83
2018-11-26T08:05:41.543Z,55.97
2018-11-26T08:08:10.894Z,54.73
2018-11-26T08:10:40.195Z,56.83
2018-11-26T08:13:09.479Z,56.53
2018-11-26T08:15:38.499Z,60.97
2018-11-26T08:18:07.783Z,54.37
2018-11-26T08:20:37.170Z,57.20
2018-11-26T08:23:06.898Z,55.70
2018-11-26T08:25:36.090Z,57.77
2018-11-26T08:28:05.708Z,59.73
2018-11-26T08:30:34.914Z,57.87
2018-11-26T08:33:04.118Z,57.27
2018-11-26T08:35:33.446Z,57.03
2018-11-26T08:38:09.149Z,55.53
2018-11-26T08:40:44.082Z,56.73
2018-11-26T08:43:18.207Z,56.57
2018-11-26T08:45:56.675Z,55.53
2018-11-26T08:48:29.698Z,51.73
2018-11-26T08:51:00.085Z,55.53
2018-11-26T08:53:29.209Z,53.73
2018-11-26T08:55:58.399Z,56.73
2018-11-26T08:58:27.744Z,55.90
2018-11-26T09:01:01.991Z,51.00
2018-11-26T09:03:36.906Z,50.27
2018-11-26T09:06:06.331Z,56.73
2018-11-26T09:08:37.603Z,53.60
2018-11-26T09:11:08.365Z,48.77
2018-11-26T09:13:37.582Z,50.33
2018-11-26T09:16:06.902Z,47.27
2018-11-26T09:18:36.099Z,47.73
2018-11-26T09:21:05.546Z,49.27
2018-11-26T09:23:34.834Z,51.53
2018-11-26T09:26:04.107Z,49.23
2018-11-26T09:28:33.625Z,48.27
2018-11-26T09:31:02.824Z,50.20
2018-11-26T09:33:31.973Z,50.07
2018-11-26T09:36:01.491Z,52.33
2018-11-26T09:38:30.566Z,53.90
2018-11-26T09:40:59.662Z,51.43
2018-11-26T09:43:29.145Z,50.80
2018-11-26T09:45:58.453Z,54.27
2018-11-26T09:48:27.727Z,51.87
2018-11-26T09:50:57.182Z,50.37
2018-11-26T09:53:26.339Z,49.27
2018-11-26T09:55:55.543Z,53.77
2018-11-26T09:58:24.910Z,55.40
2018-11-26T10:00:54.271Z,51.90
2018-11-26T10:03:23.549Z,49.63
2018-11-26T10:05:52.852Z,49.40
2018-11-26T10:08:22.139Z,49.53
2018-11-26T10:10:51.542Z,50.37
2018-11-26T10:13:20.735Z,52.87
2018-11-26T10:15:49.926Z,50.17
2018-11-26T10:18:19.102Z,51.00
2018-11-26T10:20:48.366Z,59.10
2018-11-26T10:23:17.474Z,50.10
2018-11-26T10:25:46.542Z,51.73
2018-11-26T10:28:15.859Z,49.43
2018-11-26T10:30:45.179Z,50.77
2018-11-26T10:33:15.039Z,50.80
2018-11-26T10:35:43.955Z,49.20
2018-11-26T10:38:13.187Z,53.47
2018-11-26T10:40:42.379Z,51.17
2018-11-26T10:43:11.860Z,51.67
2018-11-26T10:45:40.787Z,49.40
2018-11-26T10:48:09.994Z,52.83
2018-11-26T10:50:39.552Z,50.03
2018-11-26T10:53:08.838Z,51.23
2018-11-26T10:55:38.124Z,49.10
2018-11-26T10:58:08.074Z,50.07
2018-11-26T11:00:42.334Z,200.67
2018-11-26T11:03:11.861Z,296.63
2018-11-26T11:05:41.098Z,285.00
2018-11-26T11:08:10.375Z,103.03
2018-11-26T11:10:39.574Z,60.00
2018-11-26T11:13:08.979Z,51.17
2018-11-26T11:15:38.349Z,50.80
2018-11-26T11:18:08.445Z,50.17
2018-11-26T11:20:37.884Z,52.47
2018-11-26T11:23:08.482Z,55.77
2018-11-26T11:25:37.810Z,53.03
2018-11-26T11:28:07.328Z,55.73
2018-11-26T11:30:36.677Z,51.50
2018-11-26T11:35:34.819Z,52.37
2018-11-26T11:38:03.947Z,56.90
2018-11-26T11:40:33.220Z,55.77
2018-11-26T11:43:02.411Z,53.00
2018-11-26T11:45:33.024Z,54.07
2018-11-26T11:48:02.141Z,53.60
2018-11-26T11:50:31.232Z,55.00
2018-11-26T11:53:00.583Z,51.93
2018-11-26T11:55:29.932Z,52.97
2018-11-26T11:57:59.227Z,60.13
2018-11-26T12:00:40.709Z,60.10
2018-11-26T12:03:12.074Z,56.80
2018-11-26T12:05:41.680Z,57.77
2018-11-26T12:08:10.961Z,55.57
2018-11-26T12:10:40.173Z,54.70
2018-11-26T12:13:10.756Z,55.43
2018-11-26T12:15:41.336Z,53.10
2018-11-26T12:18:11.524Z,58.63
2018-11-26T12:20:40.751Z,54.50
2018-11-26T12:23:10.388Z,58.97
2018-11-26T12:25:39.952Z,59.80
2018-11-26T12:28:09.179Z,66.67
2018-11-26T12:30:39.940Z,63.07
2018-11-26T12:33:09.200Z,68.37
2018-11-26T12:35:38.393Z,60.03
2018-11-26T12:38:07.652Z,61.43
2018-11-26T12:40:36.992Z,63.07
2018-11-26T12:43:06.711Z,58.40
2018-11-26T12:45:36.107Z,56.73
2018-11-26T12:48:05.604Z,56.00
2018-11-26T12:50:34.867Z,55.13
2018-11-26T12:53:04.199Z,59.13
2018-11-26T12:55:33.491Z,60.90
2018-11-26T12:58:02.592Z,63.87
2018-11-26T13:00:31.924Z,55.83
2018-11-26T13:03:04.451Z,57.90
2018-11-26T13:05:33.967Z,58.40
2018-11-26T13:08:03.172Z,50.10
2018-11-26T13:10:32.463Z,64.07
2018-11-26T13:13:01.899Z,93.20
2018-11-26T13:15:31.167Z,77.97
2018-11-26T13:18:00.363Z,79.40
2018-11-26T13:20:30.469Z,94.00
2018-11-26T13:22:59.668Z,99.53
2018-11-26T13:25:30.072Z,58.00
2018-11-26T13:28:00.601Z,66.67
2018-11-26T13:30:34.127Z,56.23
2018-11-26T13:33:04.652Z,53.23
2018-11-26T13:35:33.747Z,50.97
2018-11-26T13:38:02.859Z,51.40
2018-11-26T13:40:32.200Z,61.97
2018-11-26T13:43:01.355Z,55.77
2018-11-26T13:45:34.376Z,53.20
2018-11-26T13:48:04.232Z,60.23
2018-11-26T13:50:34.957Z,51.20
2018-11-26T13:53:04.175Z,49.20
2018-11-26T13:55:33.472Z,52.00
2018-11-26T13:58:04.032Z,51.33
2018-11-26T14:00:33.301Z,56.27
2018-11-26T14:03:02.520Z,67.97
2018-11-26T14:05:31.638Z,58.50
2018-11-26T14:08:00.906Z,67.97
2018-11-26T14:10:30.108Z,59.27
2018-11-26T14:13:18.680Z,70.13
2018-11-26T14:15:47.792Z,56.33
2018-11-26T14:18:17.052Z,50.87
2018-11-26T14:20:46.212Z,50.93
2018-11-26T14:23:15.451Z,49.33
2018-11-26T14:25:44.563Z,50.90
2018-11-26T14:28:13.948Z,47.10
2018-11-26T14:30:43.221Z,54.17
2018-11-26T14:33:12.460Z,49.67
2018-11-26T14:35:41.914Z,56.90
2018-11-26T14:38:13.399Z,86.10
2018-11-26T14:40:49.972Z,72.03
2018-11-26T14:43:19.276Z,57.70
2018-11-26T14:45:48.656Z,67.37
2018-11-26T14:48:18.120Z,62.63
2018-11-26T14:50:47.292Z,55.53
2018-11-26T14:53:18.018Z,59.80
2018-11-26T14:55:47.112Z,68.07
2018-11-26T14:58:16.260Z,61.67
2018-11-26T15:00:45.809Z,55.07
2018-11-26T15:03:15.163Z,58.00
2018-11-26T15:05:44.679Z,54.37
2018-11-26T15:08:14.909Z,80.70
2018-11-26T15:10:43.985Z,67.10
2018-11-26T15:13:13.205Z,56.30
2018-11-26T15:15:42.416Z,53.53
2018-11-26T15:18:11.590Z,58.33
2018-11-26T15:20:40.791Z,57.77
2018-11-26T15:23:10.131Z,56.63
2018-11-26T15:25:39.276Z,57.47
2018-11-26T15:28:11.007Z,60.70
2018-11-26T15:30:40.112Z,115.13
2018-11-26T15:33:09.491Z,66.57
2018-11-26T15:35:38.638Z,104.57
2018-11-26T15:38:07.963Z,62.83
2018-11-26T15:40:37.232Z,56.90
2018-11-26T15:43:07.503Z,52.97
2018-11-26T15:45:36.964Z,62.53
2018-11-26T15:48:08.813Z,93.07
2018-11-26T15:50:38.134Z,69.80
2018-11-26T15:53:08.144Z,52.40
2018-11-26T15:55:37.885Z,54.10
2018-11-26T15:58:08.169Z,105.40
2018-11-26T16:00:37.441Z,82.63
2018-11-26T16:03:07.335Z,112.63
2018-11-26T16:05:36.768Z,95.17
2018-11-26T16:08:09.092Z,91.67
2018-11-26T16:10:38.520Z,108.33
2018-11-26T16:13:08.764Z,68.40
2018-11-26T16:15:40.408Z,51.90
2018-11-26T16:18:11.849Z,57.70
2018-11-26T16:20:41.431Z,89.27
2018-11-26T16:23:11.089Z,128.10
2018-11-26T16:25:42.768Z,89.33
2018-11-26T16:28:13.631Z,86.27
2018-11-26T16:30:42.696Z,119.30
2018-11-26T16:33:12.232Z,85.10
2018-11-26T16:35:42.107Z,73.37
2018-11-26T16:38:11.799Z,63.63
2018-11-26T16:40:40.832Z,88.57
2018-11-26T16:43:10.345Z,68.90
2018-11-26T16:45:39.511Z,149.23
2018-11-26T16:48:08.679Z,115.90
2018-11-26T16:50:38.447Z,63.60
2018-11-26T16:53:08.331Z,53.10
2018-11-26T16:55:37.615Z,58.23
2018-11-26T16:58:06.877Z,54.63
2018-11-26T17:00:36.169Z,51.53
2018-11-26T17:03:05.471Z,51.93
2018-11-26T17:05:40.414Z,59.10
2018-11-26T17:08:13.549Z,128.13
2018-11-26T17:10:43.252Z,84.50
2018-11-26T17:13:13.444Z,58.47
2018-11-26T17:15:43.135Z,45.93
2018-11-26T17:18:12.442Z,43.43
2018-11-26T17:20:41.737Z,43.10
2018-11-26T17:23:11.256Z,93.67
2018-11-26T17:25:40.631Z,50.47
2018-11-26T17:28:09.938Z,46.63
2018-11-26T17:30:40.894Z,56.93
2018-11-26T17:33:11.120Z,70.40
2018-11-26T17:35:40.394Z,68.97
2018-11-26T17:38:09.848Z,79.53
2018-11-26T17:40:40.121Z,71.63
2018-11-26T17:43:10.827Z,105.57
2018-11-26T17:45:40.045Z,80.10
2018-11-26T17:48:09.244Z,80.60
2018-11-26T17:50:40.700Z,92.90
2018-11-26T17:53:11.667Z,98.67
2018-11-26T17:55:46.913Z,84.50
2018-11-26T17:58:16.296Z,104.00
2018-11-26T18:00:47.071Z,91.60
2018-11-26T18:03:16.247Z,84.07
2018-11-26T18:05:45.289Z,71.47
2018-11-26T18:08:16.904Z,66.07
2018-11-26T18:10:46.359Z,55.50
2018-11-26T18:13:15.455Z,66.13
2018-11-26T18:15:45.228Z,84.07
2018-11-26T18:18:15.887Z,64.97
2018-11-26T18:20:45.520Z,92.77
2018-11-26T18:23:14.896Z,95.33
2018-11-26T18:25:45.662Z,94.90
2018-11-26T18:28:16.274Z,81.23
2018-11-26T18:30:47.236Z,57.57
2018-11-26T18:33:17.014Z,64.00
2018-11-26T18:35:47.165Z,61.57
2018-11-26T18:38:16.838Z,93.23
2018-11-26T18:40:48.683Z,92.87
2018-11-26T18:43:18.736Z,73.13
2018-11-26T18:45:48.562Z,211.17
2018-11-26T18:48:20.895Z,70.83
2018-11-26T18:50:52.068Z,92.47
2018-11-26T18:53:22.365Z,103.77
2018-11-26T18:55:52.016Z,85.30
2018-11-26T18:58:21.884Z,102.50
2018-11-26T19:00:53.952Z,140.23
2018-11-26T19:03:24.272Z,138.07
2018-11-26T19:06:00.089Z,68.67
2018-11-26T19:08:29.558Z,61.30
2018-11-26T19:11:01.709Z,62.30
2018-11-26T19:13:34.520Z,95.80
2018-11-26T19:16:11.884Z,96.37
2018-11-26T19:18:41.073Z,79.57
2018-11-26T19:21:10.393Z,68.37
2018-11-26T19:23:40.095Z,87.50
2018-11-26T19:26:09.400Z,61.77
2018-11-26T19:28:38.894Z,51.20
2018-11-26T19:31:08.340Z,48.60
2018-11-26T19:33:37.878Z,50.57
2018-11-26T19:36:08.689Z,104.23
2018-11-26T19:38:39.192Z,69.03
2018-11-26T19:41:09.974Z,62.77
2018-11-26T19:43:39.236Z,53.03
2018-11-26T19:46:08.431Z,50.63
2018-11-26T19:48:37.848Z,45.40
2018-11-26T19:51:07.544Z,46.37
2018-11-26T19:53:36.792Z,95.17
2018-11-26T19:56:06.496Z,62.27
2018-11-26T19:58:35.647Z,67.17
2018-11-26T20:01:05.660Z,52.83
2018-11-26T20:03:41.725Z,58.23
2018-11-26T20:06:15.276Z,61.03
2018-11-26T20:08:46.000Z,51.17
2018-11-26T20:11:32.987Z,44.43
2018-11-26T20:13:57.059Z,44.13
2018-11-26T20:16:37.216Z,47.73
2018-11-26T20:19:07.224Z,52.27
2018-11-26T20:21:36.657Z,57.23
2018-11-26T20:24:06.988Z,56.77
2018-11-26T20:26:36.221Z,57.07
2018-11-26T20:29:05.728Z,58.50
2018-11-26T20:31:35.319Z,64.63
2018-11-26T20:34:04.828Z,60.57
2018-11-26T20:36:33.935Z,68.37
2018-11-26T20:39:03.706Z,62.30
2018-11-26T20:41:33.039Z,61.30
2018-11-26T20:44:02.356Z,60.13
2018-11-26T20:46:31.796Z,61.83
2018-11-26T20:49:01.182Z,66.60
2018-11-26T20:51:30.367Z,65.70
2018-11-26T20:53:59.888Z,68.63
2018-11-26T20:56:29.136Z,76.03
2018-11-26T20:58:58.287Z,59.60
2018-11-26T21:01:27.938Z,54.90
2018-11-26T21:03:57.447Z,114.77
2018-11-26T21:06:26.954Z,122.60
2018-11-26T21:08:56.840Z,107.37
2018-11-26T21:11:26.328Z,108.90
2018-11-26T21:13:56.003Z,62.57
2018-11-26T21:16:25.594Z,74.53
2018-11-26T21:18:55.220Z,60.70
2018-11-26T21:21:24.772Z,102.93
2018-11-26T21:23:54.308Z,83.53
2018-11-26T21:26:23.842Z,76.00
2018-11-26T21:28:54.332Z,56.03
2018-11-26T21:31:23.897Z,46.23
2018-11-26T21:33:53.454Z,45.27
2018-11-26T21:36:23.108Z,44.23
2018-11-26T21:38:52.520Z,44.23
2018-11-26T21:41:22.115Z,47.63
2018-11-26T21:43:51.895Z,52.80
2018-11-26T21:46:21.373Z,48.33
2018-11-26T21:48:50.840Z,64.80
2018-11-26T21:51:20.472Z,44.53
2018-11-26T21:53:49.957Z,47.57
2018-11-26T21:56:19.531Z,45.03
2018-11-26T21:58:49.290Z,46.77
2018-11-26T22:01:18.760Z,53.33
2018-11-26T22:03:48.169Z,44.97
2018-11-26T22:06:18.155Z,43.07
2018-11-26T22:08:47.572Z,47.63
2018-11-26T22:11:17.335Z,76.57
2018-11-26T22:13:46.752Z,55.40
2018-11-26T22:16:16.253Z,64.57
2018-11-26T22:18:46.007Z,63.63
2018-11-26T22:21:15.517Z,66.63
2018-11-26T22:23:45.761Z,78.27
2018-11-26T22:26:15.444Z,43.27
2018-11-26T22:28:45.004Z,56.53
2018-11-26T22:31:14.479Z,56.63
2018-11-26T22:33:44.231Z,68.57
2018-11-26T22:36:13.741Z,62.67
2018-11-26T22:38:43.608Z,55.57
2018-11-26T22:41:13.004Z,44.47
2018-11-26T22:43:42.088Z,44.10
2018-11-26T22:46:15.880Z,51.90
2018-11-26T22:48:40.820Z,46.53
2018-11-26T22:51:10.168Z,47.00
2018-11-26T22:53:39.464Z,49.17
2018-11-26T22:56:08.828Z,46.40
2018-11-26T22:58:38.195Z,42.93
2018-11-26T23:01:07.851Z,40.47
2018-11-26T23:03:37.312Z,39.93
2018-11-26T23:06:06.695Z,38.67
2018-11-26T23:08:35.886Z,40.47
2018-11-26T23:11:05.200Z,37.13
2018-11-26T23:13:34.385Z,37.60
2018-11-26T23:16:03.675Z,36.43
2018-11-26T23:18:33.048Z,38.93
2018-11-26T23:21:02.381Z,38.47
2018-11-26T23:23:31.452Z,36.40
2018-11-26T23:26:00.647Z,37.93
2018-11-26T23:28:30.073Z,37.27
2018-11-26T23:30:59.602Z,38.53
2018-11-26T23:33:29.032Z,40.07
2018-11-26T23:35:58.352Z,40.10
2018-11-26T23:38:28.432Z,39.60
2018-11-26T23:40:57.799Z,40.30
2018-11-26T23:43:27.132Z,37.97
2018-11-26T23:45:57.150Z,38.90
2018-11-26T23:48:26.458Z,40.67
2018-11-26T23:50:55.719Z,39.63
2018-11-26T23:53:25.268Z,40.13
2018-11-26T23:55:54.548Z,40.70
2018-11-26T23:58:23.648Z,40.37
